Christina O — C6FN7 — position and weather

sailwx.info

Track history (hours):
 
Tides and Currents Weather Stations Pressure Air Temp Water Temp Dewpoint Dewpoint Depression Visibility Wind Speed Wind Dir Waves Ship Positions

Christina O

Operator: V Ships Leisure SAM

Last reported at 2017-Nov-24 12:16 UTC. Time now 2017-Nov-24 22:23 UTC.
Position S 00°14' W 051°19'.

Length 186 m; draft 6.1 m.

Type: Passenger vessel. MMSI: 308322000.

Date/timePositionNaut miles runAvg speedWind from/ knotsBaromVisibWave heightAir tempDewpointWater temp
2017-Nov-24 12:16S 00°14' W 051°19'414.9
2017-Nov-24 12:00S 00°12' W 051°16'714.7
2017-Nov-24 11:31S 00°07' W 051°10'5 8.8
2017-Nov-24 10:57S 00°04' W 051°07'0 0.0
2017-Nov-24 10:27S 00°04' W 051°07'0 0.0
2017-Nov-24 09:57S 00°04' W 051°07'0 0.0
2017-Nov-24 09:27S 00°04' W 051°07'0 0.1
2017-Nov-24 09:00S 00°04' W 051°07'1 2.3
2017-Nov-24 08:30S 00°04' W 051°06'4 8.3
2017-Nov-24 08:00S 00°01' W 051°02'4 8.7
2017-Nov-24 07:30N 00°03' W 051°00'5 9.8
2017-Nov-24 07:00N 00°07' W 050°58'5 9.6
2017-Nov-24 06:30N 00°09' W 050°54'5 9.4
2017-Nov-24 06:00N 00°10' W 050°49'610.7
2017-Nov-24 05:25N 00°12' W 050°43'  
2017-Nov-17 02:58N 14°03' W 061°01'3 0.4
2017-Nov-16 18:27N 14°05' W 060°58'  
Track history (hours):
 
Tides and Currents Weather Stations Pressure Air Temp Water Temp Dewpoint Dewpoint Depression Visibility Wind Speed Wind Dir Waves Ship Positions

Christina O

Operator: V Ships Leisure SAM

Last reported at 2017-Nov-24 12:16 UTC. Time now 2017-Nov-24 22:23 UTC.
Position S 00°14' W 051°19'.

Length 186 m; draft 6.1 m.

Type: Passenger vessel. MMSI: 308322000.

Date/timePositionNaut miles runAvg speedWind from/ knotsBaromVisibWave heightAir tempDewpointWater temp
2017-Nov-24 12:16S 00°14' W 051°19'414.9
2017-Nov-24 12:00S 00°12' W 051°16'714.7
2017-Nov-24 11:31S 00°07' W 051°10'5 8.8
2017-Nov-24 10:57S 00°04' W 051°07'0 0.0
2017-Nov-24 10:27S 00°04' W 051°07'0 0.0
2017-Nov-24 09:57S 00°04' W 051°07'0 0.0
2017-Nov-24 09:27S 00°04' W 051°07'0 0.1
2017-Nov-24 09:00S 00°04' W 051°07'1 2.3
2017-Nov-24 08:30S 00°04' W 051°06'4 8.3
2017-Nov-24 08:00S 00°01' W 051°02'4 8.7
2017-Nov-24 07:30N 00°03' W 051°00'5 9.8
2017-Nov-24 07:00N 00°07' W 050°58'5 9.6
2017-Nov-24 06:30N 00°09' W 050°54'5 9.4
2017-Nov-24 06:00N 00°10' W 050°49'610.7
2017-Nov-24 05:25N 00°12' W 050°43'  
2017-Nov-17 02:58N 14°03' W 061°01'3 0.4
2017-Nov-16 18:27N 14°05' W 060°58'  

Dump ship's entire track history